logo tempoitalia

Diretta Meteo Las Vegas Henderson, Stati Uniti (USA)domenica 30 agosto ore 22:56

Mappa
Sereno 31 °C Sereno 24 Ore: T.min 29 T.max 37
Ponente Sud/Sud-Est Km/h 14.8 Punto di rugiada: 8 °C Umidità: 23% Visibilità: 10 Km
Il sole sorge alle: 06:11 Il sole tramonta alle: 19:11
30 Agosto 2026 22:56 tempo osservato: Sereno Sereno 31 23 1011 vento: Nord S/SE 14.8
30 Agosto 2026 21:56 tempo osservato: Sereno Sereno 31 20 1011 vento: Nord S/SE 13
30 Agosto 2026 20:56 tempo osservato: Sereno Sereno 32 19 1011 vento: Nord O/SO 11.1
30 Agosto 2026 19:56 tempo osservato: Sereno Sereno 33 17 1010 vento: Nord O 7.4
30 Agosto 2026 18:56 tempo osservato: Sereno Sereno 35 15 1010 vento: Nord O 22.2
30 Agosto 2026 17:56 tempo osservato: Sereno Sereno 36 15 1010 vento: Nord SO 18.5
30 Agosto 2026 16:56 tempo osservato: Sereno Sereno 37 15 1010 vento: Nord O/SO 20.3
30 Agosto 2026 15:56 tempo osservato: Sereno Sereno 37 14 1011 vento: Nord O/SO 27.8
30 Agosto 2026 14:56 tempo osservato: Sereno Sereno 37 14 1011 vento: Nord SO 24
30 Agosto 2026 13:56 tempo osservato: Sereno Sereno 37 14 1012 vento: Nord O/SO 14.8
30 Agosto 2026 12:56 tempo osservato: Sereno Sereno 37 14 1013 vento: Nord SO 29.6
30 Agosto 2026 11:56 tempo osservato: Sereno Sereno 34 17 1014 vento: Nord O/SO 25.9
30 Agosto 2026 10:56 tempo osservato: Sereno Sereno 34 16 1014 vento: Nord SO 29.6
30 Agosto 2026 09:56 tempo osservato: Sereno Sereno 33 18 1014 vento: Nord SO 25.9
30 Agosto 2026 08:56 tempo osservato: Sereno Sereno 31 20 1013 vento: Nord S 29.6
30 Agosto 2026 07:56 tempo osservato: Sereno Sereno 31 20 1013 vento: Nord S/SO 24
30 Agosto 2026 06:56 tempo osservato: Sereno Sereno 29 26 1013 vento: Nord S 29.6
30 Agosto 2026 05:56 tempo osservato: Sereno Sereno 29 28 1012 vento: Nord S 27.8
30 Agosto 2026 04:56 tempo osservato: Sereno Sereno 30 27 1011 vento: Nord S 20.3
30 Agosto 2026 03:56 tempo osservato: Sereno Sereno 31 25 1010 vento: Nord SO 25.9
30 Agosto 2026 02:56 tempo osservato: Sereno Sereno 31 25 1010 vento: Nord SO 25.9
30 Agosto 2026 01:56 tempo osservato: Sereno Sereno 32 25 1010 vento: Nord O/SO 24
30 Agosto 2026 00:56 tempo osservato: Sereno Sereno 32 24 1011 vento: Nord SO 14.8
29 Agosto 2026 23:56 tempo osservato: Sereno Sereno 32 24 1011 vento: Nord S/SO 16.7